Time;durP1;ratioP1;P1;durP2;ratioP2;P2;SDS_P1;SDS_P2;PMS_P1;PMS_P2;Temp;Humidity;BMP_temperature;BMP_pressure;BME280_temperature;BME280_humidity;BME280_pressure;Samples;Min_cycle;Max_cycle;Signal;HPM_P1;HPM_P2
2022/10/11 00:01:18;;;;;;;4.90;2.97;;;;;;;;;;5106996;28;20452;-74
2022/10/11 00:03:45;;;;;;;4.50;3.50;;;;;;;;;;5112167;28;20548;-77
2022/10/11 00:06:12;;;;;;;5.67;2.67;;;;;;;;;;5112492;28;20449;-75
2022/10/11 00:08:39;;;;;;;6.43;3.10;;;;;;;;;;5112965;28;20454;-75
2022/10/11 00:11:07;;;;;;;2.97;2.30;;;;;;;;;;5112185;28;20471;-76
2022/10/11 00:13:34;;;;;;;8.57;3.63;;;;;;;;;;5112710;28;20877;-77
2022/10/11 00:16:07;;;;;;;4.60;2.70;;;;;;;;;;5111468;28;20935;-76
2022/10/11 00:18:34;;;;;;;6.87;3.10;;;;;;;;;;5112764;28;20449;-75
2022/10/11 00:21:01;;;;;;;5.43;4.70;;;;;;;;;;5112221;28;20455;-78
2022/10/11 00:23:29;;;;;;;5.63;3.63;;;;;;;;;;5112177;28;20447;-77
2022/10/11 00:25:59;;;;;;;4.50;2.63;;;;;;;;;;5111983;28;20444;-78
2022/10/11 00:28:26;;;;;;;4.87;3.40;;;;;;;;;;5112655;28;20957;-78
2022/10/11 00:30:53;;;;;;;4.80;2.80;;;;;;;;;;5112915;28;20480;-78
2022/10/11 00:33:22;;;;;;;5.23;3.00;;;;;;;;;;5112339;28;20475;-79
2022/10/11 00:35:49;;;;;;;9.53;2.83;;;;;;;;;;5112644;28;20810;-78
2022/10/11 00:38:16;;;;;;;5.90;3.67;;;;;;;;;;5109952;28;20467;-80
2022/10/11 00:40:43;;;;;;;2.53;2.33;;;;;;;;;;5111180;28;21025;-79
2022/10/11 00:43:15;;;;;;;4.73;2.83;;;;;;;;;;5111786;28;20440;-79
2022/10/11 00:46:03;;;;;;;4.17;2.67;;;;;;;;;;5104379;28;20485;-78
2022/10/11 00:48:33;;;;;;;3.10;2.50;;;;;;;;;;5110864;28;20476;-78
2022/10/11 00:51:01;;;;;;;3.70;3.23;;;;;;;;;;5112105;28;20810;-79
2022/10/11 00:53:30;;;;;;;4.83;2.77;;;;;;;;;;5112161;28;20444;-78
2022/10/11 00:56:00;;;;;;;5.07;2.90;;;;;;;;;;5112077;28;20543;-78
2022/10/11 00:58:27;;;;;;;4.40;2.87;;;;;;;;;;5112833;28;20439;-78
2022/10/11 01:00:55;;;;;;;3.27;2.60;;;;;;;;;;5111908;28;20448;-76
2022/10/11 01:03:24;;;;;;;4.30;2.73;;;;;;;;;;5111605;28;20447;-77
2022/10/11 01:05:53;;;;;;;3.97;3.10;;;;;;;;;;5111970;28;20444;-78
2022/10/11 01:08:20;;;;;;;3.70;2.40;;;;;;;;;;5111608;28;20469;-78
2022/10/11 01:10:47;;;;;;;4.23;2.50;;;;;;;;;;5112198;28;20476;-78
2022/10/11 01:13:18;;;;;;;8.23;2.80;;;;;;;;;;5111354;28;20454;-79
2022/10/11 01:15:55;;;;;;;4.43;2.83;;;23.10;99.90;;;;;;5112022;28;20435;-78
2022/10/11 01:18:29;;;;;;;3.83;3.20;;;13.50;99.90;;;;;;5112629;28;20451;-78
2022/10/11 01:21:05;;;;;;;3.50;2.60;;;13.40;99.90;;;;;;5111487;28;20454;-78
2022/10/11 01:24:05;;;;;;;8.10;2.63;;;;;;;;;;5111725;28;20443;-78
2022/10/11 01:26:54;;;;;;;4.00;2.50;;;;;;;;;;5101289;28;20447;-78
2022/10/11 01:29:25;;;;;;;5.60;2.63;;;;;;;;;;5111248;28;20446;-78
2022/10/11 01:31:55;;;;;;;3.30;2.43;;;;;;;;;;5111761;28;20516;-78
2022/10/11 01:34:27;;;;;;;3.90;2.93;;;;;;;;;;5111650;28;20444;-78
2022/10/11 01:36:58;;;;;;;4.90;2.73;;;;;;;;;;5111416;28;20444;-69
2022/10/11 01:39:29;;;;;;;4.77;3.10;;;;;;;;;;5108952;28;20440;-78
2022/10/11 01:41:58;;;;;;;4.90;2.37;;;;;;;;;;5111474;28;20452;-78
2022/10/11 01:44:26;;;;;;;4.73;2.73;;;;;;;;;;5111230;28;20443;-78
2022/10/11 01:46:55;;;;;;;5.50;3.20;;;;;;;;;;5112046;28;20471;-79
2022/10/11 01:49:22;;;;;;;3.17;2.87;;;;;;;;;;5111776;28;20454;-79
2022/10/11 01:51:51;;;;;;;3.63;2.67;;;;;;;;;;5111701;28;21012;-78
2022/10/11 01:54:28;;;;;;;3.77;2.23;;;;;;;;;;5107893;28;20440;-77
2022/10/11 01:57:10;;;;;;;3.93;2.80;;;;;;;;;;5111457;28;20476;-77
2022/10/11 01:59:42;;;;;;;5.10;2.33;;;;;;;;;;5077804;28;20448;-79
2022/10/11 02:02:16;;;;;;;6.93;2.93;;;;;;;;;;5119957;28;20925;-78
2022/10/11 02:04:45;;;;;;;3.10;2.27;;;;;;;;;;5114154;28;20777;-78
2022/10/11 02:07:14;;;;;;;3.63;2.13;;;;;;;;;;5110901;28;20448;-78
2022/10/11 02:09:45;;;;;;;3.10;2.53;;;;;;;;;;5111686;28;20440;-79
2022/10/11 02:12:13;;;;;;;4.10;2.43;;;;;;;;;;5111019;28;20817;-79
2022/10/11 02:14:42;;;;;;;2.50;2.13;;;;;;;;;;5104818;28;20444;-79
2022/10/11 02:17:10;;;;;;;4.40;2.73;;;;;;;;;;5115322;28;20458;-78
2022/10/11 02:19:41;;;;;;;3.93;2.30;;;;;;;;;;5106189;28;20472;-78
2022/10/11 02:22:10;;;;;;;5.37;2.73;;;;;;;;;;5120225;28;20453;-78
2022/10/11 02:24:40;;;;;;;3.57;2.50;;;;;;;;;;5115854;28;20450;-78
2022/10/11 02:27:08;;;;;;;4.17;2.90;;;;;;;;;;5115825;28;20489;-79
2022/10/11 02:29:36;;;;;;;3.80;3.03;;;;;;;;;;5121111;28;20523;-77
2022/10/11 02:32:04;;;;;;;8.90;3.00;;;;;;;;;;5120814;28;20825;-78
2022/10/11 02:34:33;;;;;;;4.00;2.60;;;;;;;;;;5120180;28;20436;-78
2022/10/11 02:37:04;;;;;;;4.77;2.47;;;;;;;;;;5130651;28;20521;-72
2022/10/11 02:39:34;;;;;;;2.90;2.20;;;;;;;;;;5123110;28;20438;-79
2022/10/11 02:42:03;;;;;;;5.70;3.23;;;;;;;;;;5125463;28;20440;-77
2022/10/11 02:44:33;;;;;;;3.57;2.90;;;;;;;;;;5114341;28;20813;-77
2022/10/11 02:47:00;;;;;;;6.20;3.20;;;;;;;;;;5114238;28;20475;-77
2022/10/11 02:49:28;;;;;;;4.07;2.80;;;;;;;;;;5114902;28;20440;-76
2022/10/11 02:51:55;;;;;;;4.73;2.77;;;;;;;;;;5114543;28;20475;-76
2022/10/11 02:54:24;;;;;;;3.20;2.50;;;;;;;;;;5114781;28;20469;-77
2022/10/11 02:56:52;;;;;;;3.53;2.87;;;;;;;;;;5115176;28;20452;-76
2022/10/11 02:59:19;;;;;;;3.60;2.87;;;;;;;;;;5118369;28;20463;-78
2022/10/11 03:01:46;;;;;;;5.20;2.37;;;;;;;;;;5120519;28;20463;-79
2022/10/11 03:04:13;;;;;;;5.50;2.90;;;;;;;;;;5121217;28;20852;-76
2022/10/11 03:06:40;;;;;;;7.70;2.80;;;;;;;;;;5123783;28;20447;-78
2022/10/11 03:09:08;;;;;;;3.77;2.50;;;;;;;;;;5124771;28;21009;-78
2022/10/11 03:11:36;;;;;;;3.53;2.90;;;;;;;;;;5127820;28;20537;-78
2022/10/11 03:14:03;;;;;;;4.00;2.70;;;;;;;;;;5117882;28;20528;-77
2022/10/11 03:16:30;;;;;;;8.90;4.20;;;;;;;;;;5130300;28;20487;-77
2022/10/11 03:18:57;;;;;;;5.03;3.37;;;;;;;;;;5131151;28;20939;-77
2022/10/11 03:21:25;;;;;;;5.53;3.70;;;;;;;;;;5125844;28;20453;-73
2022/10/11 03:23:52;;;;;;;6.37;3.33;;;;;;;;;;5128294;28;20453;-78
2022/10/11 03:26:20;;;;;;;5.90;3.57;;;;;;;;;;5130296;28;21153;-75
2022/10/11 03:28:48;;;;;;;5.53;2.43;;;;;;;;;;5115062;28;20450;-78
2022/10/11 03:31:17;;;;;;;5.20;2.50;;;;;;;;;;5113032;28;20897;-75
2022/10/11 03:33:44;;;;;;;6.63;3.03;;;;;;;;;;5109971;28;20487;-80
2022/10/11 03:36:11;;;;;;;9.73;2.90;;;;;;;;;;5114931;28;20444;-77
2022/10/11 03:38:38;;;;;;;2.90;2.57;;;;;;;;;;5114196;28;20454;-80
2022/10/11 03:41:06;;;;;;;3.00;2.33;;;;;;;;;;5113710;28;20445;-82
2022/10/11 03:43:33;;;;;;;4.07;3.17;;;;;;;;;;5112812;28;20451;-77
2022/10/11 03:46:01;;;;;;;5.90;2.80;;;;;;;;;;5112911;28;20448;-76
2022/10/11 03:48:28;;;;;;;4.10;2.93;;;;;;;;;;5113985;28;20486;-81
2022/10/11 03:50:56;;;;;;;5.13;3.33;;;;;;;;;;5112700;28;20444;-73
2022/10/11 03:53:23;;;;;;;8.53;2.80;;;;;;;;;;5112661;28;20554;-73
2022/10/11 03:55:53;;;;;;;9.03;3.00;;;;;;;;;;5105630;28;20441;-74
2022/10/11 03:58:20;;;;;;;3.43;2.57;;;;;;;;;;5111130;28;20493;-72
2022/10/11 04:00:47;;;;;;;21.83;12.70;;;;;;;;;;5113336;28;20936;-82
2022/10/11 04:03:15;;;;;;;7.67;4.23;;;;;;;;;;5112607;28;20460;-81
2022/10/11 04:05:43;;;;;;;6.47;3.13;;;;;;;;;;5113575;28;20440;-82
2022/10/11 04:08:10;;;;;;;5.30;2.73;;;;;;;;;;5113163;28;20448;-79
2022/10/11 04:10:37;;;;;;;4.47;2.87;;;;;;;;;;5113016;28;20452;-70
2022/10/11 04:13:04;;;;;;;4.53;2.70;;;;;;;;;;5111579;28;20475;-81
2022/10/11 04:15:31;;;;;;;4.70;2.77;;;;;;;;;;5113599;28;20459;-81
2022/10/11 04:17:58;;;;;;;3.93;2.97;;;;;;;;;;5112624;28;20452;-82
2022/10/11 04:20:27;;;;;;;7.33;3.27;;;;;;;;;;5113415;28;20539;-81
2022/10/11 04:22:54;;;;;;;4.90;3.40;;;;;;;;;;5112485;28;20950;-71
2022/10/11 04:25:21;;;;;;;4.43;2.67;;;;;;;;;;5113636;28;20452;-82
2022/10/11 04:27:48;;;;;;;6.37;3.13;;;;;;;;;;5113201;28;20443;-81
2022/10/11 04:30:16;;;;;;;3.90;2.90;;;;;;;;;;5112849;28;20444;-82
2022/10/11 04:32:43;;;;;;;4.63;2.80;;;;;;;;;;5112404;28;20472;-82
2022/10/11 04:35:11;;;;;;;7.33;3.77;;;;;;;;;;5112660;28;20483;-82
2022/10/11 04:37:39;;;;;;;9.23;3.67;;;;;;;;;;5113068;28;20929;-81
2022/10/11 04:40:07;;;;;;;9.70;3.67;;;;;;;;;;5112417;28;20444;-82
2022/10/11 04:42:34;;;;;;;4.40;3.37;;;;;;;;;;5098692;28;20468;-82
2022/10/11 04:45:02;;;;;;;5.20;3.37;;;;;;;;;;5111910;28;20889;-81
2022/10/11 04:47:29;;;;;;;7.50;3.33;;;;;;;;;;5112972;28;20536;-81
2022/10/11 04:49:56;;;;;;;5.60;3.87;;;;;;;;;;5111921;28;20451;-81
2022/10/11 04:52:23;;;;;;;6.63;3.80;;;;;;;;;;5112586;28;20498;-81
2022/10/11 04:54:52;;;;;;;7.87;3.20;;;;;;;;;;5113230;28;20873;-81
2022/10/11 04:57:19;;;;;;;7.13;4.20;;;;;;;;;;5112725;28;20527;-81
2022/10/11 04:59:46;;;;;;;8.33;6.20;;;;;;;;;;5112918;28;20780;-81
2022/10/11 05:02:13;;;;;;;9.00;4.90;;;;;;;;;;5111118;28;20754;-82
2022/10/11 05:04:41;;;;;;;6.40;4.27;;;;;;;;;;5111870;28;20511;-81
2022/10/11 05:07:08;;;;;;;12.03;6.60;;;;;;;;;;5111546;28;20456;-82
2022/10/11 05:09:35;;;;;;;7.50;4.60;;;;;;;;;;5111842;28;20443;-81
2022/10/11 05:12:04;;;;;;;8.70;5.03;;;;;;;;;;5110871;28;20478;-81
2022/10/11 05:14:31;;;;;;;9.87;5.67;;;;;;;;;;5112482;28;20452;-81
2022/10/11 05:16:58;;;;;;;14.10;6.83;;;;;;;;;;5111686;28;20455;-81
2022/10/11 05:19:26;;;;;;;7.63;6.07;;;;;;;;;;5111844;28;20454;-80
2022/10/11 05:21:53;;;;;;;9.10;6.43;;;;;;;;;;5111479;28;20444;-80
2022/10/11 05:24:20;;;;;;;11.33;6.17;;;;;;;;;;5111915;28;20501;-80
2022/10/11 05:26:48;;;;;;;7.90;5.77;;;;;;;;;;5112189;28;20443;-80
2022/10/11 05:29:17;;;;;;;12.83;8.47;;;;;;;;;;5111638;28;20517;-80
2022/10/11 05:31:44;;;;;;;21.70;7.70;;;;;;;;;;5111518;28;20747;-81
2022/10/11 05:34:11;;;;;;;10.50;7.27;;;;;;;;;;5111305;28;20459;-81
2022/10/11 05:36:38;;;;;;;13.63;7.60;;;;;;;;;;5112178;28;20453;-80
2022/10/11 05:39:05;;;;;;;15.10;7.97;;;;;;;;;;5111373;28;20467;-80
2022/10/11 05:41:32;;;;;;;12.07;7.23;;;;;;;;;;5111600;28;20447;-80
2022/10/11 05:43:59;;;;;;;12.93;6.70;;;;;;;;;;5111144;28;20459;-80
2022/10/11 05:46:28;;;;;;;14.67;7.10;;;;;;;;;;5111619;28;20807;-80
2022/10/11 05:48:55;;;;;;;19.00;8.03;;;;;;;;;;5111059;28;20953;-79
2022/10/11 05:51:22;;;;;;;12.50;7.83;;;;;;;;;;5111569;28;20470;-79
2022/10/11 05:53:49;;;;;;;18.40;8.40;;;;;;;;;;5111857;28;20490;-79
2022/10/11 05:56:18;;;;;;;17.37;8.47;;;;;;;;;;5115074;28;20451;-80
2022/10/11 05:58:45;;;;;;;14.70;8.57;;;;;;;;;;5116116;28;20461;-80
2022/10/11 06:01:16;;;;;;;11.93;7.10;;;;;;;;;;5114379;28;20953;-80
2022/10/11 06:03:45;;;;;;;14.17;8.50;;;;;;;;;;5116092;28;20450;-80
2022/10/11 06:06:12;;;;;;;16.03;7.47;;;;;;;;;;5115159;28;20471;-80
2022/10/11 06:08:39;;;;;;;17.53;8.87;;;;;;;;;;5115742;28;20448;-80
2022/10/11 06:11:10;;;;;;;14.80;7.53;;;;;;;;;;5114631;28;20776;-80
2022/10/11 06:13:37;;;;;;;9.60;6.33;;;;;;;;;;5115230;28;20985;-80
2022/10/11 06:16:05;;;;;;;20.47;8.70;;;;;;;;;;5114890;28;20577;-80
2022/10/11 06:18:32;;;;;;;12.17;7.17;;;;;;;;;;5115586;28;20788;-80
2022/10/11 06:21:00;;;;;;;11.10;6.87;;;;;;;;;;5114464;28;20466;-81
2022/10/11 06:23:28;;;;;;;13.03;8.73;;;;;;;;;;5115108;28;20458;-80
2022/10/11 06:25:58;;;;;;;12.27;7.03;;;;;;;;;;5115044;28;20871;-79
2022/10/11 06:28:25;;;;;;;12.80;7.73;;;;;;;;;;5115716;28;20444;-79
2022/10/11 06:30:53;;;;;;;12.57;7.60;;;;;;;;;;5114994;28;20493;-80
2022/10/11 06:33:20;;;;;;;12.97;7.10;;;;;;;;;;5115503;28;20482;-80
2022/10/11 06:35:47;;;;;;;11.33;6.90;;;;;;;;;;5121874;28;20439;-80
2022/10/11 06:38:15;;;;;;;13.13;6.80;;;;;;;;;;5138544;28;20459;-79
2022/10/11 06:40:43;;;;;;;9.77;7.17;;;;;;;;;;5129336;28;20527;-79
2022/10/11 06:43:10;;;;;;;12.37;7.70;;;;;;;;;;5115946;28;20486;-78
2022/10/11 06:45:37;;;;;;;12.63;6.40;;;;;;;;;;5138281;28;20446;-78
2022/10/11 06:48:05;;;;;;;18.67;6.40;;;;;;;;;;5138541;28;20473;-72
2022/10/11 06:50:32;;;;;;;12.80;6.60;;;;;;;;;;5131394;27;20442;-80
2022/10/11 06:52:59;;;;;;;10.53;7.40;;;;;;;;;;5115325;28;20476;-80
2022/10/11 06:55:28;;;;;;;9.93;6.83;;;;;;;;;;5115107;28;20883;-80
2022/10/11 06:57:55;;;;;;;14.53;7.33;;;;;;;;;;5114625;28;20809;-80
2022/10/11 07:00:22;;;;;;;11.43;6.90;;;;;;;;;;5101434;28;20451;-80
2022/10/11 07:02:49;;;;;;;11.93;7.10;;;;;;;;;;5114081;28;20450;-79
2022/10/11 07:05:17;;;;;;;11.30;7.00;;;;;;;;;;5113546;28;20440;-81
2022/10/11 07:07:44;;;;;;;11.00;6.93;;;;;;;;;;5113433;28;20463;-80
2022/10/11 07:10:11;;;;;;;21.33;7.90;;;;;;;;;;5113782;28;20440;-80
2022/10/11 07:12:39;;;;;;;12.00;6.97;;;;;;;;;;5113884;28;20490;-80
2022/10/11 07:15:07;;;;;;;13.00;7.17;;;;;;;;;;5113597;28;20447;-80
2022/10/11 07:17:34;;;;;;;10.50;6.57;;;;;;;;;;5113855;28;20452;-80
2022/10/11 07:20:02;;;;;;;11.03;6.80;;;;;;;;;;5113701;28;20443;-81
2022/10/11 07:22:29;;;;;;;12.10;7.57;;;;;;;;;;5113591;28;20448;-81
2022/10/11 07:24:56;;;;;;;16.60;7.67;;;;;;;;;;5113270;28;20932;-80
2022/10/11 07:27:23;;;;;;;12.50;5.87;;;;;;;;;;5114291;28;20459;-81
2022/10/11 07:29:52;;;;;;;11.10;6.03;;;;;;;;;;5113995;28;20928;-81
2022/10/11 07:32:19;;;;;;;10.80;7.30;;;;;;;;;;5113630;28;20854;-79
2022/10/11 07:34:46;;;;;;;14.30;6.83;;;;;;;;;;5113691;28;20458;-81
2022/10/11 07:37:13;;;;;;;12.60;7.27;;;;;;;;;;5113662;28;20447;-81
2022/10/11 07:39:40;;;;;;;10.90;7.93;;;;;;;;;;5113695;28;20448;-81
2022/10/11 07:42:08;;;;;;;15.43;7.53;;;;;;;;;;5112573;28;20479;-80
2022/10/11 07:44:36;;;;;;;10.40;7.10;;;;;;;;;;5113809;28;20451;-81
2022/10/11 07:47:04;;;;;;;12.03;7.33;;;;;;;;;;5112670;28;20532;-81
2022/10/11 07:49:31;;;;;;;14.87;7.63;;;;;;;;;;5113653;28;20821;-81
2022/10/11 07:51:58;;;;;;;10.53;7.37;;;;;;;;;;5112427;28;20459;-80
2022/10/11 07:54:26;;;;;;;14.57;7.13;;;;;;;;;;5113211;28;20490;-80
2022/10/11 07:56:53;;;;;;;15.13;7.10;;;;;;;;;;5113422;28;20444;-80
2022/10/11 07:59:20;;;;;;;10.50;7.40;;;;;;;;;;5113714;28;20444;-80
2022/10/11 08:01:47;;;;;;;14.27;7.50;;;;;;;;;;5112877;28;20436;-79
2022/10/11 08:04:16;;;;;;;11.60;6.03;;;;;;;;;;5112890;28;20448;-79
2022/10/11 08:06:43;;;;;;;11.17;7.27;;;;;;;;;;5113456;28;20807;-79
2022/10/11 08:09:11;;;;;;;13.23;8.00;;;;;;;;;;5112939;28;20439;-79
2022/10/11 08:11:38;;;;;;;12.40;8.37;;;;;;;;;;5112615;28;21030;-79
2022/10/11 08:14:07;;;;;;;11.57;6.57;;;;;;;;;;5112579;28;20475;-80
2022/10/11 08:16:35;;;;;;;9.83;6.73;;;;;;;;;;5099939;28;20550;-79
2022/10/11 08:19:02;;;;;;;11.87;7.90;;;;;;;;;;5112093;28;20447;-79
2022/10/11 08:21:31;;;;;;;10.17;7.30;;;;;;;;;;5112785;28;20482;-79
2022/10/11 08:23:58;;;;;;;10.50;6.97;;;;;;;;;;5112400;28;20439;-79
2022/10/11 08:26:25;;;;;;;12.27;6.80;;;;;;;;;;5112780;28;20447;-78
2022/10/11 08:28:52;;;;;;;9.73;7.20;;;;;;;;;;5113185;28;20452;-79
2022/10/11 08:31:19;;;;;;;12.10;6.60;;;;;;;;;;5112606;28;20497;-78
2022/10/11 08:33:46;;;;;;;11.73;7.30;;;;;;;;;;5112602;28;20480;-78
2022/10/11 08:36:14;;;;;;;17.63;12.80;;;;;;;;;;5112436;28;20831;-80
2022/10/11 08:38:42;;;;;;;12.47;8.27;;;;;;;;;;5112671;28;20448;-80
2022/10/11 08:41:26;;;;;;;11.50;7.40;;;;;;;;;;5111739;28;20440;-80
2022/10/11 08:43:56;;;;;;;16.33;7.53;;;;;;;;;;5112736;28;20454;-79
2022/10/11 08:46:26;;;;;;;12.23;7.60;;;;;;;;;;5112361;28;20456;-80
2022/10/11 08:48:53;;;;;;;10.57;6.77;;;;;;;;;;5112777;28;20499;-79
2022/10/11 08:51:23;;;;;;;11.60;5.93;;;;;;;;;;5112161;28;20452;-79
2022/10/11 08:53:54;;;;;;;11.40;7.20;;;;;;;;;;5112477;28;20582;-80
2022/10/11 08:56:23;;;;;;;11.47;7.20;;;;;;;;;;5112398;28;20451;-77
2022/10/11 08:58:52;;;;;;;13.93;7.00;;;;;;;;;;5112688;28;20448;-80
2022/10/11 09:01:21;;;;;;;11.97;7.03;;;;;;;;;;5112141;28;20454;-79
2022/10/11 09:03:48;;;;;;;10.13;7.57;;;;;;;;;;5112351;28;20515;-77
2022/10/11 09:06:20;;;;;;;10.23;6.17;;;;;;;;;;5111274;28;20951;-79
2022/10/11 09:08:54;;;;;;;12.80;6.47;;;;;;;;;;5112082;28;20919;-80
2022/10/11 09:11:30;;;;;;;15.80;7.53;;;;;;;;;;5112086;28;20466;-80
2022/10/11 09:14:03;;;;;;;12.47;7.00;;;;;;;;;;5112034;28;20472;-80
2022/10/11 09:16:37;;;;;;;13.57;6.67;;;;;;;;;;5112445;28;20806;-80
2022/10/11 09:19:14;;;;;;;12.70;7.33;;;;;;;;;;5111502;28;20440;-80
2022/10/11 09:21:43;;;;;;;18.63;8.93;;;;;;;;;;5111989;28;20446;-80
2022/10/11 09:24:19;;;;;;;13.40;8.30;;;;;;;;;;5111663;28;20451;-80
2022/10/11 09:26:54;;;;;;;13.03;8.20;;;;;;;;;;5111968;28;20947;-80
2022/10/11 09:29:26;;;;;;;15.40;8.10;;;;;;;;;;5113166;28;20435;-80
2022/10/11 09:31:54;;;;;;;16.67;7.73;;;;;;;;;;5116235;28;20432;-80
2022/10/11 09:34:24;;;;;;;15.00;7.67;;;;;;;;;;5116333;28;20482;-80
2022/10/11 09:36:55;;;;;;;15.13;7.80;;;;;;;;;;5116051;28;20443;-79
2022/10/11 09:39:28;;;;;;;13.20;7.30;;;;;;;;;;5116351;28;20448;-80
2022/10/11 09:41:59;;;;;;;16.10;9.00;;;;;;;;;;5115251;28;20907;-79
2022/10/11 09:44:28;;;;;;;14.20;7.87;;;;;;;;;;5116573;28;20505;-79
2022/10/11 09:46:56;;;;;;;10.30;7.37;;;;;;;;;;5114949;28;20807;-79
2022/10/11 09:49:25;;;;;;;12.17;7.00;;;;;;;;;;5115904;28;20446;-81
2022/10/11 09:51:54;;;;;;;11.00;7.10;;;;;;;;;;5115676;28;20450;-80
2022/10/11 09:54:26;;;;;;;13.27;8.80;;;;;;;;;;5115959;28;20488;-80
2022/10/11 09:56:53;;;;;;;11.63;7.20;;;;;;;;;;5116156;28;20475;-79
2022/10/11 09:59:27;;;;;;;10.83;7.00;;;;;;;;;;5115959;28;20444;-80
2022/10/11 10:02:17;;;;;;;8.67;7.43;;;;;;;;;;5109839;28;20444;-76
2022/10/11 10:04:55;;;;;;;15.80;7.40;;;;;;;;;;5115748;28;20452;-80
2022/10/11 10:07:22;;;;;;;12.07;6.93;;;;;;;;;;5116058;28;20450;-79
2022/10/11 10:09:49;;;;;;;11.60;7.10;;;;;;;;;;5115717;28;20935;-79
2022/10/11 10:12:21;;;;;;;14.03;7.37;;;;;;;;;;5114786;28;20459;-80
2022/10/11 10:14:57;;;;;;;11.50;6.70;;;;;;;;;;5115698;28;20836;-78
2022/10/11 10:17:24;;;;;;;18.43;7.37;;;;;;;;;;5115626;28;20455;-75
2022/10/11 10:19:52;;;;;;;16.90;7.17;;;;;;;;;;5115536;28;20451;-79
2022/10/11 10:22:21;;;;;;;10.37;6.30;;;;;;;;;;5114922;28;20444;-79
2022/10/11 10:24:48;;;;;;;13.93;7.70;;;;;;;;;;5115431;28;20772;-79
2022/10/11 10:27:19;;;;;;;15.90;7.73;;;;;;;;;;5115144;28;20501;-80
2022/10/11 10:30:00;;;;;;;13.00;8.33;;;;;;;;;;5117557;28;20439;-81
2022/10/11 10:32:31;;;;;;;11.00;6.10;;;;;;;;;;5122072;28;20440;-80
2022/10/11 10:35:03;;;;;;;16.93;8.87;;;;;;;;;;5124196;28;20467;-79
2022/10/11 10:37:33;;;;;;;14.20;7.27;;;;;;;;;;5125668;28;20440;-80
2022/10/11 10:40:03;;;;;;;15.00;8.33;;;;;;;;;;5129436;28;20436;-79
2022/10/11 10:42:30;;;;;;;14.27;8.90;;;;;;;;;;5129495;28;20443;-80
2022/10/11 10:44:58;;;;;;;18.93;7.50;;;;;;;;;;5129604;28;20439;-79
2022/10/11 10:47:39;;;;;;;13.80;7.23;;;;;;;;;;5130908;28;20479;-76
2022/10/11 10:50:08;;;;;;;14.90;7.13;;;;;;;;;;5130717;28;20450;-74
2022/10/11 10:52:48;;;;;;;14.33;7.90;;;;;;;;;;5136885;28;20455;-80
2022/10/11 10:55:21;;;;;;;14.80;6.80;;;;;;;;;;5136403;28;20606;-79
2022/10/11 10:57:53;;;;;;;13.30;7.00;;;;;;;;;;5137590;28;20439;-78
2022/10/11 11:00:21;;;;;;;9.50;6.60;;;;;;;;;;5137503;28;20428;-72
2022/10/11 11:02:54;;;;;;;19.10;6.83;;;;;;;;;;5138952;28;20448;-76
2022/10/11 11:05:26;;;;;;;10.63;6.60;;;;;;;;;;5133880;28;20458;-79
2022/10/11 11:07:55;;;;;;;15.73;6.97;;;;;;;;;;5125446;28;20440;-79
2022/10/11 11:10:23;;;;;;;9.20;6.53;;;;;;;;;;5119312;28;20458;-79
2022/10/11 11:12:54;;;;;;;13.93;6.70;;;;;;;;;;5118514;28;20440;-79
2022/10/11 11:15:24;;;;;;;11.80;6.70;;;;;;;;;;5115831;28;20467;-78
2022/10/11 11:18:00;;;;;;;12.97;6.73;;;;;;;;;;5114890;28;20456;-79
2022/10/11 11:20:32;;;;;;;9.40;5.70;;;;;;;;;;5114172;28;20455;-79
2022/10/11 11:23:02;;;;;;;13.83;5.80;;;;;;;;;;5114163;28;20448;-79
2022/10/11 11:25:36;;;;;;;9.60;6.43;;;;;;;;;;5114668;28;20456;-79
2022/10/11 11:28:10;;;;;;;11.27;6.20;;;;;;;;;;5114275;28;20650;-80
2022/10/11 11:30:41;;;;;;;14.80;7.90;;;;;;;;;;5113974;28;20439;-79
2022/10/11 11:33:14;;;;;;;9.40;5.83;;;;;;;;;;5113656;28;20455;-79
2022/10/11 11:35:43;;;;;;;14.43;7.10;;;;;;;;;;5113863;28;20475;-79
2022/10/11 11:38:12;;;;;;;19.23;6.80;;;;;;;;;;5112603;28;20810;-79
2022/10/11 11:40:42;;;;;;;13.97;6.27;;;;;;;;;;5112192;28;20961;-80
2022/10/11 11:43:13;;;;;;;12.53;6.53;;;;;;;;;;5113197;28;20444;-80
2022/10/11 11:45:44;;;;;;;10.70;6.50;;;;;;;;;;5113964;28;20462;-79
2022/10/11 11:48:16;;;;;;;8.30;5.70;;;;;;;;;;5113224;27;20540;-79
2022/10/11 11:50:45;;;;;;;13.93;7.27;;;;;;;;;;5113386;28;20501;-79
2022/10/11 11:53:14;;;;;;;9.23;5.90;;;;;;;;;;5112634;28;20444;-77
2022/10/11 11:55:47;;;;;;;8.53;5.97;;;;;;;;;;5113251;28;20483;-79
2022/10/11 11:58:22;;;;;;;9.50;6.43;;;;;;;;;;5112872;28;21161;-79
2022/10/11 12:00:55;;;;;;;8.90;5.00;;;;;;;;;;5113386;28;20961;-77
2022/10/11 12:03:26;;;;;;;8.33;5.57;;;;;;;;;;5113455;28;20935;-79
2022/10/11 12:06:08;;;;;;;9.97;5.77;;;;;;;;;;5112965;28;20478;-78
2022/10/11 12:08:35;;;;;;;8.77;5.80;;;;;;;;;;5096833;28;20864;-78
2022/10/11 12:11:03;;;;;;;8.10;5.60;;;;;;;;;;5112139;28;20946;-79
2022/10/11 12:13:35;;;;;;;11.20;6.57;;;;;;;;;;5113346;28;20534;-79
2022/10/11 12:16:09;;;;;;;8.10;6.03;;;;;;;;;;5112207;28;20478;-79
2022/10/11 12:18:47;;;;;;;8.70;6.20;;;;;;;;;;5113328;28;20419;-79
2022/10/11 12:21:19;;;;;;;9.03;5.03;;;;;;;;;;5111810;28;20443;-78
2022/10/11 12:23:47;;;;;;;12.60;6.00;;;;;;;;;;5113667;28;20448;-79
2022/10/11 12:26:31;;;;;;;8.40;4.63;;;;;;;;;;5098809;28;20447;-79
2022/10/11 12:29:13;;;;;;;9.47;5.13;;;;;;;;;;5112188;28;20440;-79
2022/10/11 12:31:40;;;;;;;7.67;4.73;;;;;;;;;;5111972;28;20444;-79
2022/10/11 12:34:19;;;;;;;8.57;5.17;;;;;;;;;;5111716;28;20454;-79
2022/10/11 12:36:47;;;;;;;8.33;6.40;;;;;;;;;;5112604;28;20444;-79
2022/10/11 12:39:33;;;;;;;7.07;5.10;;;;;;;;;;5111574;28;20444;-79
2022/10/11 12:42:07;;;;;;;13.27;6.23;;;;;;;;;;5111291;28;20966;-79
2022/10/11 12:44:34;;;;;;;7.37;5.17;;;;;;;;;;5112534;28;20455;-79
2022/10/11 12:47:07;;;;;;;8.13;5.33;;;;;;;;;;5111394;28;20455;-79
2022/10/11 12:49:45;;;;;;;10.10;5.93;;;;;;;;;;5112143;28;20440;-79
2022/10/11 12:52:28;;;;;;;7.80;4.73;;;;;;;;;;5111647;28;20450;-77
2022/10/11 12:55:03;;;;;;;8.77;5.80;;;;;;;;;;5111452;28;20471;-79
2022/10/11 12:57:48;;;;;;;9.10;5.50;;;;;;;;;;5112115;28;20450;-78
2022/10/11 13:00:19;;;;;;;7.83;5.70;;;;;;;;;;5111095;28;20950;-79
2022/10/11 13:02:47;;;;;;;7.90;5.83;;;;;;;;;;5111974;28;20489;-79
2022/10/11 13:05:20;;;;;;;6.73;4.70;;;;;;;;;;5110731;28;20789;-79
2022/10/11 13:07:47;;;;;;;10.10;5.73;;;;;;;;;;5112183;28;20443;-79
2022/10/11 13:10:15;;;;;;;8.70;5.00;;;;;;;;;;5110970;28;20452;-78
2022/10/11 13:12:45;;;;;;;7.27;5.13;;;;;;;;;;5112333;28;20806;-79
2022/10/11 13:15:15;;;;;;;7.43;5.50;;;;;;;;;;5111286;28;20486;-79
2022/10/11 13:17:42;;;;;;;7.57;5.10;;;;;;;;;;5111687;28;20943;-79
2022/10/11 13:20:17;;;;;;;7.60;4.63;;;;;;;;;;5110575;28;20451;-79
2022/10/11 13:22:47;;;;;;;5.20;4.47;;;;;;;;;;5112168;28;20443;-79
2022/10/11 13:25:16;;;;;;;6.00;4.70;;;;;;;;;;5111686;28;20513;-78
2022/10/11 13:27:44;;;;;;;8.53;5.50;;;;;;;;;;5112116;28;20448;-78
2022/10/11 13:30:13;;;;;;;7.43;5.00;;;;;;;;;;5111054;28;20440;-79
2022/10/11 13:32:43;;;;;;;5.70;4.80;;;;;;;;;;5112227;28;20490;-78
2022/10/11 13:35:15;;;;;;;5.30;4.80;;;;;;;;;;5110694;28;20471;-78
2022/10/11 13:37:44;;;;;;;8.37;4.90;;;;;;;;;;5111631;28;20432;-78
2022/10/11 13:40:14;;;;;;;6.07;4.40;;;;;;;;;;5110821;28;20450;-79
2022/10/11 13:42:42;;;;;;;6.50;4.47;;;;;;;;;;5112078;28;20811;-76
2022/10/11 13:45:10;;;;;;;6.27;5.20;;;;;;;;;;5111388;28;20447;-78
2022/10/11 13:47:37;;;;;;;7.90;5.37;;;;;;;;;;5111730;28;20483;-78
2022/10/11 13:50:10;;;;;;;6.83;5.30;;;;;;;;;;5110741;28;20452;-78
2022/10/11 13:52:48;;;;;;;6.73;4.20;;;;;;;;;;5112089;28;20801;-78
2022/10/11 13:55:23;;;;;;;8.37;5.30;;;;;;;;;;5111409;28;20825;-79
2022/10/11 13:57:51;;;;;;;6.30;4.87;;;;;;;;;;5111776;28;20453;-78
2022/10/11 14:00:30;;;;;;;6.37;4.53;;;;;;;;;;5110577;28;20857;-78
2022/10/11 14:02:59;;;;;;;5.50;4.40;;;;;;;;;;5111403;28;20789;-78
2022/10/11 14:05:31;;;;;;;10.00;5.13;;;;;;;;;;5111516;28;20454;-78
2022/10/11 14:08:00;;;;;;;6.20;4.53;;;;;;;;;;5111354;28;20447;-78
2022/10/11 14:10:29;;;;;;;5.00;3.50;;;;;;;;;;5101725;28;20854;-78
2022/10/11 14:13:04;;;;;;;5.10;4.30;;;;;;;;;;5110830;28;20863;-78
2022/10/11 14:15:33;;;;;;;5.67;4.17;;;;;;;;;;5112300;28;20490;-78
2022/10/11 14:18:01;;;;;;;8.40;3.90;;;;;;;;;;5114591;28;20448;-78
2022/10/11 14:20:35;;;;;;;5.90;4.60;;;;;;;;;;5114865;28;20444;-78
2022/10/11 14:23:02;;;;;;;4.33;3.87;;;;;;;;;;5114874;28;20450;-78
2022/10/11 14:25:31;;;;;;;7.27;4.90;;;;;;;;;;5115074;28;20451;-78
2022/10/11 14:27:58;;;;;;;5.03;4.23;;;;;;;;;;5114665;28;20478;-78
2022/10/11 14:30:26;;;;;;;5.20;4.33;;;;;;;;;;5114817;28;20450;-78
2022/10/11 14:32:55;;;;;;;6.60;4.70;;;;;;;;;;5114344;28;20894;-72
2022/10/11 14:35:23;;;;;;;6.33;3.97;;;;;;;;;;5115333;28;20510;-78
2022/10/11 14:37:50;;;;;;;10.07;5.00;;;;;;;;;;5115495;28;20459;-78
2022/10/11 14:40:19;;;;;;;7.80;4.50;;;;;;;;;;5114431;28;20439;-78
2022/10/11 14:42:47;;;;;;;7.70;4.20;;;;;;;;;;5115148;28;20892;-78
2022/10/11 14:45:14;;;;;;;7.93;4.63;;;;;;;;;;5114487;28;20811;-78
2022/10/11 14:47:42;;;;;;;6.10;4.93;;;;;;;;;;5115234;28;20472;-78
2022/10/11 14:50:18;;;;;;;4.60;4.10;;;;;;;;;;5114875;28;21451;-78